Time;durP1;ratioP1;P1;durP2;ratioP2;P2;SDS_P1;SDS_P2;PMS_P1;PMS_P2;Temp;Humidity;BMP_temperature;BMP_pressure;BME280_temperature;BME280_humidity;BME280_pressure;Samples;Min_cycle;Max_cycle;Signal;HPM_P1;HPM_P2
2023/08/06 00:02:05;;;;;;;3.75;1.77;;;;;;;15.29;93.81;100274.47;4992276;28;20595;-93
2023/08/06 00:04:30;;;;;;;5.30;1.88;;;;;;;15.28;93.86;100284.13;4990575;28;20034;-89
2023/08/06 00:06:56;;;;;;;3.17;1.80;;;;;;;15.27;93.65;100285.06;5007341;28;20018;-90
2023/08/06 00:09:21;;;;;;;2.42;2.08;;;;;;;15.26;93.46;100285.97;5010174;28;20038;-95
2023/08/06 00:11:46;;;;;;;2.50;1.83;;;;;;;15.24;93.79;100279.97;4992461;28;20062;-94
2023/08/06 00:14:15;;;;;;;2.53;1.80;;;;;;;15.24;93.88;100279.16;4971285;28;20026;-94
2023/08/06 00:16:42;;;;;;;4.18;2.30;;;;;;;15.22;94.17;100276.59;4991733;28;20470;-95
2023/08/06 00:19:07;;;;;;;2.10;1.85;;;;;;;15.21;94.23;100280.13;4985989;28;20065;-94
2023/08/06 00:21:33;;;;;;;3.25;1.95;;;;;;;15.19;94.42;100276.78;4971027;28;20831;-93
2023/08/06 00:23:58;;;;;;;4.93;1.98;;;;;;;15.17;94.58;100276.84;4977797;28;20038;-95
2023/08/06 00:26:24;;;;;;;3.78;1.88;;;;;;;15.17;94.94;100273.38;4974433;28;20026;-94
2023/08/06 00:28:49;;;;;;;5.90;1.80;;;;;;;15.16;94.76;100271.69;4958653;28;20030;-93
2023/08/06 00:31:15;;;;;;;3.30;2.15;;;;;;;15.15;94.64;100270.00;4975284;28;20026;-94
2023/08/06 00:33:40;;;;;;;2.92;1.88;;;;;;;15.14;94.98;100263.06;4966772;28;20093;-94
2023/08/06 00:36:05;;;;;;;3.20;2.15;;;;;;;15.13;94.92;100264.81;4972608;28;20474;-96
2023/08/06 00:38:30;;;;;;;3.13;1.90;;;;;;;15.13;94.70;100261.38;4972733;28;20022;-93
2023/08/06 00:40:56;;;;;;;2.70;2.00;;;;;;;15.12;94.69;100263.13;4979567;28;20037;-95
2023/08/06 00:43:21;;;;;;;3.60;1.88;;;;;;;15.12;94.68;100259.69;4975298;28;20394;-94
2023/08/06 00:45:46;;;;;;;3.00;1.95;;;;;;;15.12;94.59;100263.13;4971214;28;20046;-95
2023/08/06 00:48:12;;;;;;;2.38;1.77;;;;;;;15.10;94.88;100262.41;4966147;28;20027;-95
2023/08/06 00:50:37;;;;;;;2.25;1.80;;;;;;;15.12;95.11;100262.31;4972790;28;20039;-94
2023/08/06 00:53:02;;;;;;;2.97;1.92;;;;;;;15.13;95.08;100254.34;4956887;28;20054;-94
2023/08/06 00:55:28;;;;;;;4.03;1.70;;;;;;;15.12;95.11;100252.66;4971008;28;20035;-94
2023/08/06 00:57:56;;;;;;;2.72;1.80;;;;;;;15.12;94.94;100260.53;4971746;28;20463;-94
2023/08/06 01:00:21;;;;;;;3.10;2.08;;;;;;;15.13;95.09;100261.38;4954274;28;20446;-95
2023/08/06 01:02:48;;;;;;;2.83;1.80;;;;;;;15.13;95.11;100266.63;4971108;28;20046;-94
2023/08/06 01:05:14;;;;;;;2.28;1.85;;;;;;;15.12;94.85;100257.91;4961841;28;20439;-96
2023/08/06 01:08:16;;;;;;;2.95;1.80;;;;;;;15.14;94.47;100263.06;4962348;28;20030;-95
2023/08/06 01:11:07;;;;;;;4.78;2.30;;;;;;;15.12;94.81;100259.69;4970589;28;20027;-93
2023/08/06 01:13:46;;;;;;;2.70;1.88;;;;;;;15.09;94.99;100260.72;4977427;28;20026;-94
2023/08/06 01:16:15;;;;;;;3.08;2.00;;;;;;;15.09;95.25;100255.47;4979931;28;20049;-94
2023/08/06 01:18:41;;;;;;;2.53;1.83;;;;;;;15.10;95.18;100258.91;4979227;28;20031;-95
2023/08/06 01:21:07;;;;;;;3.40;1.80;;;;;;;15.09;95.27;100259.84;4958241;28;20049;-94
2023/08/06 01:23:33;;;;;;;3.17;1.90;;;;;;;15.07;95.41;100259.94;4978383;28;20394;-95
2023/08/06 01:26:17;;;;;;;2.50;1.73;;;;;;;15.08;94.74;100258.16;4956184;28;20030;-93
2023/08/06 01:28:51;;;;;;;3.30;1.83;;;;;;;15.06;95.35;100257.38;4974847;28;20043;-95
2023/08/06 01:31:27;;;;;;;3.85;2.00;;;;;;;15.03;95.35;100251.38;4973866;28;20023;-94
2023/08/06 01:33:53;;;;;;;2.63;1.88;;;;;;;15.05;95.55;100255.69;4976729;28;20034;-95
2023/08/06 01:36:20;;;;;;;2.75;1.75;;;;;;;15.05;95.81;100247.84;4972032;28;20403;-94
2023/08/06 01:38:46;;;;;;;2.15;1.80;;;;;;;15.03;96.16;100256.63;4971766;28;20102;-94
2023/08/06 01:41:13;;;;;;;2.78;1.90;;;;;;;15.05;96.09;100253.94;4974363;28;20129;-96
2023/08/06 01:43:39;;;;;;;3.33;2.03;;;;;;;15.05;96.32;100253.94;4973682;28;20034;-93
2023/08/06 01:46:04;;;;;;;2.40;2.00;;;;;;;15.05;96.43;100247.84;4954862;28;20072;-94
2023/08/06 01:48:29;;;;;;;3.80;2.10;;;;;;;15.05;96.51;100253.06;4970622;28;20026;-94
2023/08/06 01:50:54;;;;;;;2.75;1.95;;;;;;;15.03;96.58;100250.56;4971355;28;20038;-94
2023/08/06 01:53:20;;;;;;;3.70;2.03;;;;;;;15.03;96.35;100253.16;4970101;28;20057;-95
2023/08/06 01:55:49;;;;;;;3.05;1.92;;;;;;;15.02;96.64;100254.97;4973327;28;20030;-94
2023/08/06 01:58:14;;;;;;;3.70;1.92;;;;;;;15.01;96.63;100247.16;4972904;28;20026;-95
2023/08/06 02:00:40;;;;;;;3.08;1.80;;;;;;;15.01;96.63;100247.16;4974363;28;20472;-94
2023/08/06 02:03:06;;;;;;;3.72;2.00;;;;;;;15.00;96.72;100248.94;4971524;28;20456;-95
2023/08/06 02:05:33;;;;;;;2.10;1.80;;;;;;;15.00;96.52;100250.72;4973541;28;20031;-95
2023/08/06 02:07:59;;;;;;;3.17;1.83;;;;;;;15.00;96.54;100250.72;4973303;28;20459;-94
2023/08/06 02:10:24;;;;;;;3.05;1.90;;;;;;;14.98;96.33;100248.19;4974755;28;20042;-95
2023/08/06 02:12:49;;;;;;;3.08;2.05;;;;;;;14.99;96.39;100249.88;4975941;28;20026;-96
2023/08/06 02:15:15;;;;;;;3.22;1.92;;;;;;;15.00;96.56;100250.72;4970864;28;20027;-95
2023/08/06 02:17:40;;;;;;;3.15;1.50;;;;;;;14.99;96.37;100249.88;4973040;28;20030;-95
2023/08/06 02:20:06;;;;;;;3.20;1.92;;;;;;;14.99;96.40;100249.00;4981414;28;20054;-95
2023/08/06 02:22:31;;;;;;;1.95;1.55;;;;;;;14.98;96.54;100253.44;4989689;28;20027;-94
2023/08/06 02:24:56;;;;;;;3.15;1.80;;;;;;;14.98;96.59;100250.81;4992058;28;20026;-95
2023/08/06 02:27:21;;;;;;;2.50;1.90;;;;;;;15.00;96.93;100250.72;4992334;28;20481;-95
2023/08/06 02:29:47;;;;;;;2.90;1.90;;;;;;;14.99;96.61;100244.63;4991623;28;20030;-94
2023/08/06 02:32:12;;;;;;;3.22;1.80;;;;;;;14.99;97.06;100252.50;4990501;28;20030;-88
2023/08/06 02:34:37;;;;;;;3.25;1.90;;;;;;;14.98;96.80;100248.19;5016072;28;20061;-91
2023/08/06 02:37:03;;;;;;;2.58;1.90;;;;;;;14.99;96.79;100236.78;4999487;28;20517;-95
2023/08/06 02:39:28;;;;;;;3.13;2.20;;;;;;;14.99;97.12;100236.78;4990131;28;20025;-94
2023/08/06 02:41:53;;;;;;;2.50;1.80;;;;;;;15.00;96.89;100235.00;4989490;28;20034;-95
2023/08/06 02:44:19;;;;;;;2.40;1.73;;;;;;;14.99;96.90;100239.41;4991550;28;20041;-93
2023/08/06 02:46:45;;;;;;;2.33;1.67;;;;;;;15.01;97.20;100234.94;4987095;28;20037;-94
2023/08/06 02:49:10;;;;;;;2.88;1.70;;;;;;;15.00;97.29;100241.09;4991745;28;20034;-93
2023/08/06 02:51:37;;;;;;;3.17;1.90;;;;;;;15.01;96.99;100237.53;4990595;28;20026;-95
2023/08/06 02:54:03;;;;;;;3.00;1.98;;;;;;;15.01;97.28;100236.69;4991565;28;20101;-94
2023/08/06 02:56:28;;;;;;;3.45;2.00;;;;;;;15.00;97.08;100238.47;4989481;28;20149;-94
2023/08/06 02:58:53;;;;;;;2.85;2.10;;;;;;;15.00;97.14;100241.09;4988733;28;20392;-93
2023/08/06 03:01:18;;;;;;;4.55;1.90;;;;;;;15.00;97.45;100235.00;4991049;28;20053;-94
2023/08/06 03:03:44;;;;;;;3.22;1.90;;;;;;;15.00;97.02;100230.63;4988140;28;20038;-95
2023/08/06 03:06:09;;;;;;;2.90;1.80;;;;;;;14.99;96.95;100239.41;4988738;28;20022;-94
2023/08/06 03:08:35;;;;;;;2.85;1.90;;;;;;;15.00;97.24;100224.50;4988786;28;20413;-94
2023/08/06 03:11:00;;;;;;;2.53;1.63;;;;;;;14.99;97.17;100228.91;4987469;28;20485;-94
2023/08/06 03:13:25;;;;;;;2.53;1.77;;;;;;;14.99;97.42;100234.16;4989227;28;20077;-94
2023/08/06 03:15:58;;;;;;;2.75;1.77;;;;;;;14.99;97.31;100239.41;4989212;28;20393;-95
2023/08/06 03:18:23;;;;;;;2.38;1.70;;;;;;;14.98;97.45;100231.59;4989408;28;20033;-96
2023/08/06 03:20:49;;;;;;;3.33;1.80;;;;;;;14.98;97.11;100232.47;4987973;28;20047;-95
2023/08/06 03:23:14;;;;;;;3.13;1.60;;;;;;;14.98;97.63;100224.63;4991427;28;20034;-94
2023/08/06 03:25:39;;;;;;;3.83;1.90;;;;;;;15.00;97.82;100229.75;4989458;28;20031;-95
2023/08/06 03:28:05;;;;;;;4.03;1.77;;;;;;;15.02;97.57;100225.28;4990039;28;20426;-95
2023/08/06 03:30:30;;;;;;;4.70;1.80;;;;;;;15.03;97.68;100226.97;4989123;28;20022;-93
2023/08/06 03:32:55;;;;;;;2.95;1.90;;;;;;;15.03;97.57;100230.41;4989726;28;20429;-94
2023/08/06 03:35:21;;;;;;;2.20;1.80;;;;;;;15.02;97.44;100226.16;4989856;28;20037;-95
2023/08/06 03:37:47;;;;;;;2.50;1.88;;;;;;;15.02;97.79;100228.75;4987927;28;20026;-96
2023/08/06 03:40:12;;;;;;;2.42;1.60;;;;;;;15.01;97.51;100234.06;4987971;28;20057;-94
2023/08/06 03:42:37;;;;;;;3.13;1.92;;;;;;;14.99;97.62;100226.31;4987964;28;20075;-94
2023/08/06 03:45:03;;;;;;;2.70;1.67;;;;;;;14.98;97.59;100231.59;4990616;28;20521;-94
2023/08/06 03:47:28;;;;;;;2.17;1.60;;;;;;;14.97;97.74;100232.53;4988956;28;20036;-95
2023/08/06 03:49:53;;;;;;;2.78;1.60;;;;;;;14.95;97.61;100235.25;4989249;28;20018;-94
2023/08/06 03:52:19;;;;;;;2.90;1.70;;;;;;;14.94;97.83;100236.19;4987165;28;20033;-95
2023/08/06 03:54:44;;;;;;;2.75;1.60;;;;;;;14.93;97.82;100234.47;4989217;28;20030;-94
2023/08/06 03:57:10;;;;;;;3.03;1.80;;;;;;;14.91;98.25;100231.09;4988974;28;20041;-95
2023/08/06 03:59:35;;;;;;;2.97;1.50;;;;;;;14.89;98.75;100238.19;4989137;28;20462;-94
2023/08/06 04:02:00;;;;;;;2.42;1.65;;;;;;;14.91;98.78;100235.50;4985946;28;20033;-94
2023/08/06 04:04:26;;;;;;;2.03;1.35;;;;;;;14.90;99.01;100229.41;4990905;28;20018;-95
2023/08/06 04:06:51;;;;;;;2.22;1.60;;;;;;;14.91;99.24;100230.25;4989176;28;20382;-93
2023/08/06 04:09:16;;;;;;;2.80;1.70;;;;;;;14.91;98.83;100225.84;4990464;28;20490;-93
2023/08/06 04:11:41;;;;;;;2.08;1.40;;;;;;;14.90;98.92;100226.78;4986588;28;20027;-94
2023/08/06 04:14:07;;;;;;;4.03;1.52;;;;;;;14.91;98.51;100236.34;4988046;28;20026;-93
2023/08/06 04:16:32;;;;;;;4.32;1.50;;;;;;;14.90;98.53;100228.56;4986743;28;20109;-93
2023/08/06 04:18:58;;;;;;;2.55;1.42;;;;;;;14.90;98.92;100239.88;4989989;28;20042;-94
2023/08/06 04:21:23;;;;;;;2.00;1.52;;;;;;;14.90;98.95;100239.88;4988133;28;20093;-93
2023/08/06 04:23:48;;;;;;;2.67;1.27;;;;;;;14.92;98.92;100239.81;4972199;28;20413;-94
2023/08/06 04:26:14;;;;;;;3.17;1.67;;;;;;;14.93;99.17;100249.38;4994630;28;20365;-95
2023/08/06 04:28:39;;;;;;;2.22;1.27;;;;;;;14.94;99.14;100249.28;4993136;28;20112;-93
2023/08/06 04:31:04;;;;;;;2.15;1.40;;;;;;;14.95;98.89;100252.72;4989150;28;20084;-93
2023/08/06 04:33:30;;;;;;;2.95;1.60;;;;;;;14.94;99.09;100256.28;4992951;28;20500;-94
2023/08/06 04:35:58;;;;;;;3.13;1.70;;;;;;;14.94;99.16;100254.50;5003542;28;20537;-95
2023/08/06 04:38:25;;;;;;;3.03;1.35;;;;;;;14.94;99.16;100251.06;4976050;28;20085;-94
2023/08/06 04:40:50;;;;;;;2.80;1.38;;;;;;;14.94;98.97;100256.28;5003952;28;20029;-92
2023/08/06 04:43:15;;;;;;;4.00;1.65;;;;;;;14.93;98.70;100250.19;4994472;28;20030;-94
2023/08/06 04:45:47;;;;;;;1.92;1.40;;;;;;;14.93;98.80;100249.38;4992046;28;20058;-95
2023/08/06 04:48:13;;;;;;;2.72;1.40;;;;;;;14.93;98.99;100250.19;5000977;28;20030;-93
2023/08/06 04:50:38;;;;;;;3.28;1.50;;;;;;;14.93;99.26;100250.19;4997146;28;20388;-94
2023/08/06 04:53:03;;;;;;;2.45;1.48;;;;;;;14.95;99.04;100258.81;4998267;28;20025;-94
2023/08/06 04:55:29;;;;;;;3.47;1.50;;;;;;;14.94;98.98;100267.59;4993649;28;20358;-91
2023/08/06 04:57:54;;;;;;;3.28;1.90;;;;;;;14.93;99.73;100265.91;5024006;28;20086;-92
2023/08/06 05:00:19;;;;;;;3.50;1.70;;;;;;;14.92;100.00;100269.47;4999853;28;20521;-92
2023/08/06 05:02:44;;;;;;;5.95;1.77;;;;;;;14.92;100.00;100258.16;4965534;28;20042;-94
2023/08/06 05:05:10;;;;;;;2.00;1.70;;;;;;;14.93;100.00;100263.28;4991654;28;20373;-95
2023/08/06 05:07:35;;;;;;;2.28;1.55;;;;;;;14.95;100.00;100273.66;4988995;28;20038;-94
2023/08/06 05:10:00;;;;;;;2.53;1.70;;;;;;;14.98;100.00;100271.75;4993041;28;20026;-95
2023/08/06 05:12:26;;;;;;;2.17;1.52;;;;;;;15.00;100.00;100272.53;4993697;28;20025;-94
2023/08/06 05:14:51;;;;;;;3.58;1.95;;;;;;;15.05;100.00;100279.28;4997054;28;20031;-94
2023/08/06 05:17:16;;;;;;;2.50;1.48;;;;;;;15.06;100.00;100276.59;4990324;28;20038;-93
2023/08/06 05:19:42;;;;;;;2.40;1.60;;;;;;;15.08;100.00;100279.13;4991181;28;20213;-93
2023/08/06 05:22:07;;;;;;;3.60;1.80;;;;;;;15.09;100.00;100281.66;4992391;28;20026;-95
2023/08/06 05:24:32;;;;;;;3.40;1.80;;;;;;;15.14;100.00;100284.03;4991120;28;20038;-93
2023/08/06 05:26:57;;;;;;;3.83;2.13;;;;;;;15.17;100.00;100282.09;4988642;28;20482;-94
2023/08/06 05:29:23;;;;;;;3.58;2.30;;;;;;;15.21;100.00;100290.63;4975226;28;20037;-95
2023/08/06 05:31:48;;;;;;;4.03;2.13;;;;;;;15.24;100.00;100285.22;4991406;28;21587;-96
2023/08/06 05:34:13;;;;;;;3.58;1.90;;;;;;;15.28;100.00;100297.22;4996148;28;20093;-94
2023/08/06 05:36:38;;;;;;;3.33;1.90;;;;;;;15.33;100.00;100297.84;4996812;28;20018;-95
2023/08/06 05:39:04;;;;;;;4.47;2.30;;;;;;;15.40;100.00;100300.09;4988608;28;20628;-94
2023/08/06 05:41:29;;;;;;;4.40;2.28;;;;;;;15.46;99.71;100300.59;4998275;28;20033;-94
2023/08/06 05:43:54;;;;;;;6.22;2.60;;;;;;;15.51;99.67;100308.25;4996897;28;20033;-94
2023/08/06 05:46:19;;;;;;;4.30;2.67;;;;;;;15.57;99.22;100302.63;4990743;28;20034;-95
2023/08/06 05:48:45;;;;;;;4.63;3.50;;;;;;;15.61;99.24;100303.34;4997598;28;20256;-94
2023/08/06 05:51:12;;;;;;;5.32;3.85;;;;;;;15.64;98.89;100308.38;4999527;28;20029;-93
2023/08/06 05:53:38;;;;;;;5.85;4.18;;;;;;;15.65;98.21;100310.06;4992417;28;20039;-92
2023/08/06 05:56:03;;;;;;;4.63;3.13;;;;;;;15.65;98.12;100317.94;4990482;28;20026;-92
2023/08/06 05:58:30;;;;;;;3.30;2.47;;;;;;;15.65;97.16;100322.34;4994546;28;20056;-93
2023/08/06 06:00:55;;;;;;;3.95;2.25;;;;;;;15.63;96.98;100322.41;4991559;28;20116;-93
2023/08/06 06:03:21;;;;;;;4.53;2.35;;;;;;;15.63;97.19;100333.78;4998547;28;21707;-94
2023/08/06 06:05:46;;;;;;;4.25;2.53;;;;;;;15.63;96.08;100328.53;5003006;28;20092;-95
2023/08/06 06:08:11;;;;;;;7.72;2.55;;;;;;;15.65;96.35;100332.84;5001036;28;20032;-94
2023/08/06 06:10:36;;;;;;;4.88;2.67;;;;;;;15.67;97.05;100338.84;5003283;28;20052;-93
2023/08/06 06:13:02;;;;;;;3.33;2.42;;;;;;;15.70;96.57;100343.94;4984826;28;20029;-94
2023/08/06 06:15:27;;;;;;;4.57;2.25;;;;;;;15.70;95.15;100349.19;4993109;28;20073;-94
2023/08/06 06:17:52;;;;;;;3.50;2.83;;;;;;;15.71;96.67;100345.63;4970111;28;20030;-95
2023/08/06 06:20:17;;;;;;;5.80;2.92;;;;;;;15.77;97.48;100351.38;4996635;28;20042;-94
2023/08/06 06:22:43;;;;;;;4.60;3.38;;;;;;;15.82;97.60;100348.50;4990340;28;20044;-95
2023/08/06 06:25:09;;;;;;;5.13;3.38;;;;;;;15.88;97.66;100353.44;5000071;28;20022;-94
2023/08/06 06:27:34;;;;;;;5.43;3.70;;;;;;;15.90;97.54;100356.78;4997455;28;20031;-94
2023/08/06 06:30:00;;;;;;;5.47;4.13;;;;;;;15.86;97.52;100359.69;4992011;28;20113;-94
2023/08/06 06:32:25;;;;;;;6.63;4.43;;;;;;;15.80;96.88;100368.72;4994697;28;20038;-94
2023/08/06 06:34:50;;;;;;;5.28;4.50;;;;;;;15.72;96.17;100373.53;4996881;28;20037;-94
2023/08/06 06:37:16;;;;;;;5.50;4.53;;;;;;;15.67;96.91;100375.56;4977239;28;20120;-94
2023/08/06 06:39:41;;;;;;;8.05;4.85;;;;;;;15.66;96.17;100373.88;4991864;28;20014;-94
2023/08/06 06:42:06;;;;;;;5.35;4.40;;;;;;;15.65;96.14;100382.66;4996814;28;20079;-96
2023/08/06 06:44:31;;;;;;;5.85;4.70;;;;;;;15.61;96.66;100376.75;4980103;28;20049;-93
2023/08/06 06:46:57;;;;;;;7.63;4.70;;;;;;;15.60;96.32;100382.94;4988974;28;20034;-93
2023/08/06 06:49:22;;;;;;;6.18;4.60;;;;;;;15.62;97.21;100378.44;4997992;28;20466;-94
2023/08/06 06:51:47;;;;;;;6.35;4.75;;;;;;;15.63;97.25;100380.97;4997366;28;20025;-96
2023/08/06 06:54:13;;;;;;;6.05;4.32;;;;;;;15.65;96.67;100382.66;4987841;28;20026;-93
2023/08/06 06:56:38;;;;;;;7.45;4.57;;;;;;;15.64;96.66;100381.81;4996317;28;20042;-90
2023/08/06 06:59:03;;;;;;;5.63;4.45;;;;;;;15.67;97.30;100386.88;5014729;28;20042;-94
2023/08/06 07:01:28;;;;;;;7.80;4.57;;;;;;;15.71;97.81;100391.03;4992098;28;20061;-94
2023/08/06 07:03:54;;;;;;;6.57;4.32;;;;;;;15.72;97.00;100392.75;4970881;28;20022;-95
2023/08/06 07:06:19;;;;;;;6.38;4.38;;;;;;;15.70;96.82;100399.84;4993570;28;20053;-95
2023/08/06 07:08:45;;;;;;;6.97;4.85;;;;;;;15.70;96.75;100401.63;4994332;28;20034;-94
2023/08/06 07:11:10;;;;;;;5.00;3.95;;;;;;;15.72;96.58;100394.50;4994564;28;20030;-95
2023/08/06 07:13:35;;;;;;;4.68;3.92;;;;;;;15.76;97.12;100393.41;4991640;28;20032;-93
2023/08/06 07:16:01;;;;;;;4.93;3.72;;;;;;;15.81;96.34;100399.25;4989455;28;20028;-92
2023/08/06 07:18:26;;;;;;;4.90;3.92;;;;;;;15.84;96.00;100400.84;4994374;28;20022;-94
2023/08/06 07:20:53;;;;;;;5.22;3.85;;;;;;;15.84;96.71;100403.47;4994978;28;20186;-92
2023/08/06 07:23:24;;;;;;;4.97;3.78;;;;;;;15.85;95.31;100408.69;4991779;28;20030;-95
2023/08/06 07:25:49;;;;;;;5.03;4.50;;;;;;;15.82;95.52;100406.19;4997139;28;20037;-93
2023/08/06 07:28:15;;;;;;;7.75;4.45;;;;;;;15.82;95.65;100407.97;4995518;28;20406;-93
2023/08/06 07:30:41;;;;;;;6.68;4.38;;;;;;;15.82;95.71;100415.81;4990114;28;20048;-95
2023/08/06 07:33:06;;;;;;;6.13;4.50;;;;;;;15.86;96.13;100418.25;4991006;28;20030;-93
2023/08/06 07:35:32;;;;;;;6.63;4.75;;;;;;;15.88;94.59;100426.88;4973814;28;20540;-94
2023/08/06 07:37:57;;;;;;;5.28;4.50;;;;;;;15.87;95.90;100430.44;4987552;28;20031;-96
2023/08/06 07:40:22;;;;;;;7.43;5.28;;;;;;;15.90;95.77;100432.03;4980112;28;20030;-95
2023/08/06 07:42:55;;;;;;;5.25;4.55;;;;;;;15.94;95.98;100428.31;4994192;28;20446;-95
2023/08/06 07:45:21;;;;;;;5.97;4.80;;;;;;;16.00;96.34;100427.13;4989725;28;20056;-96
2023/08/06 07:47:46;;;;;;;5.60;4.63;;;;;;;16.06;95.15;100429.41;4997807;28;20395;-93
2023/08/06 07:50:13;;;;;;;6.22;4.38;;;;;;;16.08;95.39;100424.91;4984823;28;20026;-95
2023/08/06 07:52:38;;;;;;;5.13;4.18;;;;;;;16.10;95.24;100427.47;4985075;28;20041;-90
2023/08/06 07:55:04;;;;;;;6.20;4.63;;;;;;;16.13;93.80;100432.56;4987742;28;20085;-91
2023/08/06 07:57:37;;;;;;;5.90;4.45;;;;;;;16.11;94.32;100437.88;4988211;28;20022;-92
2023/08/06 08:00:05;;;;;;;6.75;4.35;;;;;;;16.07;95.31;100431.09;4985310;28;20038;-94
2023/08/06 08:02:30;;;;;;;7.10;4.65;;;;;;;16.06;94.94;100437.28;4984773;28;20485;-90
2023/08/06 08:04:55;;;;;;;5.28;3.83;;;;;;;16.01;94.96;100437.53;4985283;28;20101;-89
2023/08/06 08:07:21;;;;;;;4.00;2.92;;;;;;;15.90;93.49;100445.97;4983754;28;20057;-87
2023/08/06 08:09:48;;;;;;;2.25;1.60;;;;;;;15.68;93.14;100443.66;4986400;28;20024;-92
2023/08/06 08:12:13;;;;;;;1.30;0.85;;;;;;;15.43;93.84;100447.59;4984397;28;20177;-91
2023/08/06 08:14:38;;;;;;;1.52;0.82;;;;;;;15.28;94.67;100446.59;4982801;28;20121;-90
2023/08/06 08:17:05;;;;;;;0.55;0.40;;;;;;;15.18;94.82;100448.03;4983704;28;20034;-89
2023/08/06 08:19:31;;;;;;;0.77;0.55;;;;;;;15.05;94.71;100462.66;4988700;28;20045;-89
2023/08/06 08:21:56;;;;;;;1.55;0.80;;;;;;;14.82;96.74;100472.53;4986193;28;20034;-87
2023/08/06 08:24:25;;;;;;;1.67;0.82;;;;;;;14.69;95.90;100483.59;4982143;28;20043;-88
2023/08/06 08:26:51;;;;;;;1.38;1.10;;;;;;;14.56;97.00;100477.22;4981288;28;20504;-86
2023/08/06 08:29:17;;;;;;;3.33;1.00;;;;;;;14.38;98.16;100469.34;4979440;28;20030;-86
2023/08/06 08:31:43;;;;;;;1.40;1.10;;;;;;;14.30;98.14;100491.56;4984473;28;20482;-85
2023/08/06 08:34:08;;;;;;;1.27;1.00;;;;;;;14.20;99.54;100488.50;4982158;28;20236;-86
2023/08/06 08:36:34;;;;;;;1.58;1.17;;;;;;;14.15;99.47;100500.97;4964719;28;20465;-86
2023/08/06 08:38:59;;;;;;;1.10;1.00;;;;;;;14.11;99.31;100508.09;4982352;28;20033;-87
2023/08/06 08:41:25;;;;;;;1.90;1.40;;;;;;;14.08;99.93;100496.03;4982836;28;20057;-88
2023/08/06 08:43:51;;;;;;;2.03;1.60;;;;;;;14.03;100.00;100503.22;4983654;28;20022;-85
2023/08/06 08:46:20;;;;;;;2.13;1.60;;;;;;;14.01;100.00;100507.66;4982092;28;20117;-87
2023/08/06 08:48:46;;;;;;;2.53;1.95;;;;;;;13.99;100.00;100509.53;4984225;28;20031;-87
2023/08/06 08:51:12;;;;;;;2.45;1.90;;;;;;;13.96;100.00;100514.91;4983841;28;20034;-87
2023/08/06 08:53:39;;;;;;;2.95;1.95;;;;;;;13.92;100.00;100508.94;4983579;28;20374;-86
2023/08/06 08:56:05;;;;;;;2.65;1.60;;;;;;;13.96;100.00;100525.38;4985080;28;20615;-85
2023/08/06 08:58:31;;;;;;;3.13;1.98;;;;;;;13.88;100.00;100517.88;4984457;28;20059;-86
2023/08/06 09:00:57;;;;;;;3.72;2.08;;;;;;;13.88;100.00;100522.22;4984796;28;20568;-85
2023/08/06 09:03:23;;;;;;;4.60;2.00;;;;;;;13.81;100.00;100522.53;4987871;28;20496;-86
2023/08/06 09:05:53;;;;;;;3.55;1.83;;;;;;;13.81;100.00;100522.53;4987815;28;20027;-85
2023/08/06 09:08:24;;;;;;;3.80;1.90;;;;;;;13.80;100.00;100517.34;4986120;28;20478;-86
2023/08/06 09:10:50;;;;;;;3.35;1.60;;;;;;;13.81;100.00;100526.88;4988484;28;20022;-86
2023/08/06 09:13:15;;;;;;;2.60;1.50;;;;;;;13.85;100.00;100538.03;4987580;28;20455;-84
2023/08/06 09:15:41;;;;;;;3.08;1.45;;;;;;;13.83;100.00;100529.44;4989769;28;20042;-85
2023/08/06 09:18:12;;;;;;;3.13;1.75;;;;;;;13.84;100.00;100538.97;4986469;28;20033;-85
2023/08/06 09:20:39;;;;;;;2.90;1.70;;;;;;;13.85;100.00;100544.13;4985615;28;20046;-85
2023/08/06 09:23:10;;;;;;;3.10;1.60;;;;;;;13.86;100.00;100543.22;4986637;28;20037;-85
2023/08/06 09:25:39;;;;;;;2.92;1.60;;;;;;;13.89;100.00;100555.31;4986385;28;20032;-85
2023/08/06 09:28:05;;;;;;;3.13;1.50;;;;;;;13.85;100.00;100564.19;4986810;28;20026;-87
2023/08/06 09:30:33;;;;;;;3.65;1.27;;;;;;;13.83;100.00;100559.03;4987905;28;20090;-86
2023/08/06 09:32:59;;;;;;;2.55;1.17;;;;;;;13.84;100.00;100555.50;4986447;28;20030;-86
2023/08/06 09:35:24;;;;;;;4.13;1.60;;;;;;;13.83;100.00;100558.22;4991187;28;20041;-86
2023/08/06 09:37:49;;;;;;;2.50;1.40;;;;;;;13.87;100.00;100573.69;4988543;28;20069;-85
2023/08/06 09:40:25;;;;;;;1.70;1.20;;;;;;;13.88;100.00;100569.28;4993210;28;20529;-85
2023/08/06 09:42:51;;;;;;;2.05;1.38;;;;;;;13.87;100.00;100570.22;4990359;28;20057;-84
2023/08/06 09:45:16;;;;;;;5.50;1.90;;;;;;;13.89;100.00;100563.16;4991166;28;20054;-85
2023/08/06 09:47:41;;;;;;;2.58;1.55;;;;;;;13.92;100.00;100570.88;4991082;28;20053;-86
2023/08/06 09:50:16;;;;;;;3.83;1.30;;;;;;;13.91;100.00;100574.41;4989916;28;20092;-85
2023/08/06 09:52:42;;;;;;;2.97;1.40;;;;;;;13.92;100.00;100569.09;4986411;28;20053;-85
2023/08/06 09:55:13;;;;;;;1.90;1.30;;;;;;;13.95;100.00;100573.34;4989374;28;20027;-85
2023/08/06 09:57:43;;;;;;;3.20;1.50;;;;;;;13.95;100.00;100576.81;4985805;28;20534;-87
2023/08/06 10:00:12;;;;;;;3.25;1.55;;;;;;;13.99;100.00;100581.91;4990225;28;20014;-84
2023/08/06 10:02:39;;;;;;;4.57;1.40;;;;;;;14.00;100.00;100588.84;4987722;28;20514;-84
2023/08/06 10:05:05;;;;;;;4.05;1.60;;;;;;;13.98;100.00;100586.28;4991481;28;20412;-84
2023/08/06 10:07:30;;;;;;;2.75;1.40;;;;;;;14.01;100.00;100587.91;4989216;28;20065;-85
2023/08/06 10:09:56;;;;;;;2.65;1.50;;;;;;;14.03;100.00;100584.31;4989785;28;20026;-85
2023/08/06 10:12:24;;;;;;;3.90;1.40;;;;;;;14.05;100.00;100587.72;4988640;28;20022;-84
2023/08/06 10:14:53;;;;;;;3.40;1.52;;;;;;;14.04;100.00;100588.63;4973551;28;20053;-84
2023/08/06 10:17:19;;;;;;;3.97;2.10;;;;;;;14.06;100.00;100594.63;4986963;28;20037;-86
2023/08/06 10:19:46;;;;;;;4.38;1.80;;;;;;;14.06;100.00;100592.03;4982836;28;20041;-86
2023/08/06 10:22:13;;;;;;;3.92;1.42;;;;;;;14.08;100.00;100598.03;4987355;28;20045;-86
2023/08/06 10:25:04;;;;;;;4.38;1.67;;;;;;;14.08;100.00;100598.03;4984241;28;20030;-85
2023/08/06 10:27:30;;;;;;;5.30;1.70;;;;;;;14.10;100.00;100601.44;4986118;28;20049;-85
2023/08/06 10:29:55;;;;;;;4.30;1.88;;;;;;;14.15;100.00;100603.00;4983895;28;20297;-86
2023/08/06 10:32:21;;;;;;;3.67;1.60;;;;;;;14.16;100.00;100591.63;4983767;28;20044;-87
2023/08/06 10:35:00;;;;;;;4.30;1.67;;;;;;;14.15;100.00;100597.78;4983088;28;20398;-86
2023/08/06 10:37:37;;;;;;;3.38;1.58;;;;;;;14.16;100.00;100600.31;4985515;28;20034;-86
2023/08/06 10:40:05;;;;;;;3.45;1.65;;;;;;;14.19;100.00;100604.53;4985166;28;20026;-86
2023/08/06 10:42:31;;;;;;;4.47;1.90;;;;;;;14.21;100.00;100607.94;4982336;28;20037;-86
2023/08/06 10:45:16;;;;;;;2.60;1.55;;;;;;;14.22;100.00;100605.28;4986895;28;20157;-86
2023/08/06 10:47:43;;;;;;;3.40;1.70;;;;;;;14.24;100.00;100610.44;4986161;28;20534;-87
2023/08/06 10:50:16;;;;;;;3.42;1.80;;;;;;;14.27;100.00;100610.31;4986415;28;20392;-87
2023/08/06 10:52:41;;;;;;;5.45;2.10;;;;;;;14.26;100.00;100609.44;4967772;28;20031;-87
2023/08/06 10:55:08;;;;;;;3.90;1.73;;;;;;;14.27;100.00;100612.91;4986435;28;20027;-86
2023/08/06 10:57:34;;;;;;;4.00;1.67;;;;;;;14.28;100.00;100617.22;4985375;28;20121;-86
2023/08/06 10:59:59;;;;;;;4.82;2.00;;;;;;;14.30;100.00;100617.16;4985948;28;20034;-87
2023/08/06 11:02:25;;;;;;;4.40;1.80;;;;;;;14.32;100.00;100618.81;4984750;28;20031;-86
2023/08/06 11:04:50;;;;;;;3.25;1.70;;;;;;;14.33;100.00;100620.50;4980234;28;20034;-87
2023/08/06 11:07:16;;;;;;;3.22;1.67;;;;;;;14.38;100.00;100623.75;4984932;28;20038;-86
2023/08/06 11:09:42;;;;;;;4.43;2.00;;;;;;;14.37;100.00;100629.88;4985699;28;20045;-85
2023/08/06 11:12:10;;;;;;;4.60;2.00;;;;;;;14.39;100.00;100635.06;4982112;28;20129;-85
2023/08/06 11:14:35;;;;;;;4.43;2.10;;;;;;;14.39;100.00;100628.06;4983848;28;20030;-86
2023/08/06 11:17:01;;;;;;;4.15;1.90;;;;;;;14.37;100.00;100627.28;4986460;28;20043;-86
2023/08/06 11:19:26;;;;;;;4.20;1.90;;;;;;;14.38;100.00;100636.81;4987210;28;20494;-85